sensor_id;sensor_type;location;lat;lon;timestamp;P1;durP1;ratioP1;P2;durP2;ratioP2
46721;SDS011;32455;43.430;23.136;2022-10-28T00:02:33;4.13;;;2.70;;
46721;SDS011;32455;43.430;23.136;2022-10-28T00:05:18;3.58;;;2.70;;
46721;SDS011;32455;43.430;23.136;2022-10-28T00:08:03;4.55;;;3.55;;
46721;SDS011;32455;43.430;23.136;2022-10-28T00:10:49;6.47;;;4.13;;
46721;SDS011;32455;43.430;23.136;2022-10-28T00:13:35;7.18;;;4.65;;
46721;SDS011;32455;43.430;23.136;2022-10-28T00:16:21;6.22;;;4.15;;
46721;SDS011;32455;43.430;23.136;2022-10-28T00:19:09;10.35;;;5.47;;
46721;SDS011;32455;43.430;23.136;2022-10-28T00:21:56;5.38;;;3.90;;
46721;SDS011;32455;43.430;23.136;2022-10-28T00:24:41;7.68;;;3.72;;
46721;SDS011;32455;43.430;23.136;2022-10-28T00:27:27;5.55;;;3.40;;
46721;SDS011;32455;43.430;23.136;2022-10-28T00:30:13;5.07;;;3.45;;
46721;SDS011;32455;43.430;23.136;2022-10-28T00:32:58;4.43;;;2.70;;
46721;SDS011;32455;43.430;23.136;2022-10-28T00:35:44;3.95;;;2.75;;
46721;SDS011;32455;43.430;23.136;2022-10-28T00:38:29;8.77;;;3.92;;
46721;SDS011;32455;43.430;23.136;2022-10-28T00:41:19;5.47;;;3.72;;
46721;SDS011;32455;43.430;23.136;2022-10-28T00:53:22;11.90;;;5.35;;
46721;SDS011;32455;43.430;23.136;2022-10-28T00:56:10;7.07;;;4.20;;
46721;SDS011;32455;43.430;23.136;2022-10-28T00:58:57;7.93;;;4.40;;
46721;SDS011;32455;43.430;23.136;2022-10-28T01:01:45;3.95;;;3.42;;
46721;SDS011;32455;43.430;23.136;2022-10-28T01:04:31;4.90;;;3.00;;
46721;SDS011;32455;43.430;23.136;2022-10-28T01:07:16;3.88;;;2.28;;
46721;SDS011;32455;43.430;23.136;2022-10-28T01:10:02;3.53;;;2.03;;
46721;SDS011;32455;43.430;23.136;2022-10-28T01:34:28;3.25;;;1.38;;
46721;SDS011;32455;43.430;23.136;2022-10-28T01:37:32;2.00;;;1.60;;
46721;SDS011;32455;43.430;23.136;2022-10-28T01:46:44;4.65;;;3.20;;
46721;SDS011;32455;43.430;23.136;2022-10-28T01:49:39;7.40;;;3.10;;
46721;SDS011;32455;43.430;23.136;2022-10-28T01:52:33;4.38;;;3.38;;
46721;SDS011;32455;43.430;23.136;2022-10-28T01:55:24;3.40;;;2.50;;
46721;SDS011;32455;43.430;23.136;2022-10-28T01:58:12;3.17;;;2.58;;
46721;SDS011;32455;43.430;23.136;2022-10-28T02:01:01;3.45;;;2.30;;
46721;SDS011;32455;43.430;23.136;2022-10-28T02:03:50;2.65;;;2.25;;
46721;SDS011;32455;43.430;23.136;2022-10-28T02:06:37;3.38;;;2.42;;
46721;SDS011;32455;43.430;23.136;2022-10-28T02:09:33;3.53;;;2.15;;
46721;SDS011;32455;43.430;23.136;2022-10-28T02:12:40;4.57;;;1.98;;
46721;SDS011;32455;43.430;23.136;2022-10-28T02:18:27;3.03;;;2.08;;
46721;SDS011;32455;43.430;23.136;2022-10-28T02:21:36;3.83;;;2.08;;
46721;SDS011;32455;43.430;23.136;2022-10-28T02:24:33;3.22;;;2.50;;
46721;SDS011;32455;43.430;23.136;2022-10-28T02:30:26;4.43;;;2.72;;
46721;SDS011;32455;43.430;23.136;2022-10-28T02:36:13;2.88;;;2.15;;
46721;SDS011;32455;43.430;23.136;2022-10-28T02:39:02;4.28;;;3.03;;
46721;SDS011;32455;43.430;23.136;2022-10-28T02:42:00;4.00;;;3.13;;
46721;SDS011;32455;43.430;23.136;2022-10-28T02:45:12;5.07;;;2.90;;
46721;SDS011;32455;43.430;23.136;2022-10-28T02:48:05;2.50;;;2.30;;
46721;SDS011;32455;43.430;23.136;2022-10-28T02:57:00;4.10;;;2.35;;
46721;SDS011;32455;43.430;23.136;2022-10-28T02:59:53;3.95;;;3.17;;
46721;SDS011;32455;43.430;23.136;2022-10-28T03:02:43;5.20;;;4.03;;
46721;SDS011;32455;43.430;23.136;2022-10-28T03:05:29;11.75;;;6.18;;
46721;SDS011;32455;43.430;23.136;2022-10-28T03:08:14;8.15;;;5.45;;
46721;SDS011;32455;43.430;23.136;2022-10-28T03:11:00;5.47;;;4.05;;
46721;SDS011;32455;43.430;23.136;2022-10-28T03:13:44;4.20;;;3.30;;
46721;SDS011;32455;43.430;23.136;2022-10-28T03:16:30;4.25;;;2.50;;
46721;SDS011;32455;43.430;23.136;2022-10-28T03:19:15;2.70;;;2.33;;
46721;SDS011;32455;43.430;23.136;2022-10-28T03:22:01;3.13;;;1.90;;
46721;SDS011;32455;43.430;23.136;2022-10-28T03:24:46;3.95;;;1.95;;
46721;SDS011;32455;43.430;23.136;2022-10-28T03:27:32;2.85;;;2.28;;
46721;SDS011;32455;43.430;23.136;2022-10-28T03:30:17;4.88;;;1.83;;
46721;SDS011;32455;43.430;23.136;2022-10-28T03:33:03;3.65;;;1.92;;
46721;SDS011;32455;43.430;23.136;2022-10-28T03:35:48;1.52;;;1.42;;
46721;SDS011;32455;43.430;23.136;2022-10-28T03:38:34;5.32;;;1.52;;
46721;SDS011;32455;43.430;23.136;2022-10-28T03:41:19;2.38;;;1.58;;
46721;SDS011;32455;43.430;23.136;2022-10-28T03:44:05;2.05;;;1.40;;
46721;SDS011;32455;43.430;23.136;2022-10-28T03:46:50;1.73;;;1.40;;
46721;SDS011;32455;43.430;23.136;2022-10-28T03:49:36;3.13;;;1.52;;
46721;SDS011;32455;43.430;23.136;2022-10-28T03:52:21;1.40;;;1.27;;
46721;SDS011;32455;43.430;23.136;2022-10-28T03:55:07;3.10;;;1.52;;
46721;SDS011;32455;43.430;23.136;2022-10-28T03:57:52;2.17;;;1.65;;
46721;SDS011;32455;43.430;23.136;2022-10-28T04:00:39;2.30;;;1.65;;
46721;SDS011;32455;43.430;23.136;2022-10-28T04:03:25;2.05;;;1.77;;
46721;SDS011;32455;43.430;23.136;2022-10-28T04:06:10;2.03;;;1.75;;
46721;SDS011;32455;43.430;23.136;2022-10-28T04:08:56;2.13;;;1.60;;
46721;SDS011;32455;43.430;23.136;2022-10-28T04:11:41;3.17;;;1.65;;
46721;SDS011;32455;43.430;23.136;2022-10-28T04:14:26;3.20;;;1.92;;
46721;SDS011;32455;43.430;23.136;2022-10-28T04:17:12;1.92;;;1.40;;
46721;SDS011;32455;43.430;23.136;2022-10-28T04:19:57;1.42;;;1.27;;
46721;SDS011;32455;43.430;23.136;2022-10-28T04:22:43;2.10;;;1.30;;
46721;SDS011;32455;43.430;23.136;2022-10-28T04:25:28;2.33;;;1.75;;
46721;SDS011;32455;43.430;23.136;2022-10-28T04:28:13;2.75;;;1.98;;
46721;SDS011;32455;43.430;23.136;2022-10-28T04:30:58;3.70;;;1.80;;
46721;SDS011;32455;43.430;23.136;2022-10-28T04:33:46;2.25;;;1.90;;
46721;SDS011;32455;43.430;23.136;2022-10-28T04:36:32;2.22;;;1.63;;
46721;SDS011;32455;43.430;23.136;2022-10-28T04:39:17;2.63;;;2.00;;
46721;SDS011;32455;43.430;23.136;2022-10-28T04:42:03;4.43;;;2.00;;
46721;SDS011;32455;43.430;23.136;2022-10-28T04:44:48;2.90;;;1.88;;
46721;SDS011;32455;43.430;23.136;2022-10-28T04:47:34;2.13;;;1.60;;
46721;SDS011;32455;43.430;23.136;2022-10-28T04:50:19;3.67;;;1.55;;
46721;SDS011;32455;43.430;23.136;2022-10-28T04:53:05;3.65;;;2.40;;
46721;SDS011;32455;43.430;23.136;2022-10-28T04:55:49;2.70;;;2.03;;
46721;SDS011;32455;43.430;23.136;2022-10-28T04:58:35;2.72;;;2.00;;
46721;SDS011;32455;43.430;23.136;2022-10-28T05:01:20;3.53;;;1.98;;
46721;SDS011;32455;43.430;23.136;2022-10-28T05:04:05;2.78;;;1.85;;
46721;SDS011;32455;43.430;23.136;2022-10-28T05:06:51;2.92;;;2.15;;
46721;SDS011;32455;43.430;23.136;2022-10-28T05:09:36;3.50;;;1.85;;
46721;SDS011;32455;43.430;23.136;2022-10-28T05:12:21;6.80;;;2.50;;
46721;SDS011;32455;43.430;23.136;2022-10-28T05:15:07;3.92;;;2.20;;
46721;SDS011;32455;43.430;23.136;2022-10-28T05:17:53;2.88;;;1.70;;
46721;SDS011;32455;43.430;23.136;2022-10-28T05:20:38;2.88;;;2.05;;
46721;SDS011;32455;43.430;23.136;2022-10-28T05:23:23;2.85;;;2.08;;
46721;SDS011;32455;43.430;23.136;2022-10-28T05:26:09;5.18;;;1.88;;
46721;SDS011;32455;43.430;23.136;2022-10-28T05:28:54;2.33;;;2.00;;
46721;SDS011;32455;43.430;23.136;2022-10-28T05:31:39;3.17;;;2.00;;
46721;SDS011;32455;43.430;23.136;2022-10-28T05:34:25;3.95;;;2.33;;
46721;SDS011;32455;43.430;23.136;2022-10-28T05:37:10;2.92;;;2.05;;
46721;SDS011;32455;43.430;23.136;2022-10-28T05:39:55;4.60;;;2.88;;
46721;SDS011;32455;43.430;23.136;2022-10-28T05:42:41;7.65;;;3.05;;
46721;SDS011;32455;43.430;23.136;2022-10-28T05:45:27;5.35;;;3.17;;
46721;SDS011;32455;43.430;23.136;2022-10-28T05:48:13;2.35;;;2.08;;
46721;SDS011;32455;43.430;23.136;2022-10-28T05:50:58;7.03;;;2.35;;
46721;SDS011;32455;43.430;23.136;2022-10-28T05:53:44;5.72;;;3.75;;
46721;SDS011;32455;43.430;23.136;2022-10-28T05:56:30;6.75;;;3.45;;
46721;SDS011;32455;43.430;23.136;2022-10-28T05:59:15;15.13;;;7.03;;
46721;SDS011;32455;43.430;23.136;2022-10-28T06:02:01;21.70;;;8.90;;
46721;SDS011;32455;43.430;23.136;2022-10-28T06:04:47;20.05;;;9.45;;
46721;SDS011;32455;43.430;23.136;2022-10-28T06:07:32;21.50;;;8.43;;
46721;SDS011;32455;43.430;23.136;2022-10-28T06:10:18;13.57;;;7.15;;
46721;SDS011;32455;43.430;23.136;2022-10-28T06:13:03;12.93;;;5.47;;
46721;SDS011;32455;43.430;23.136;2022-10-28T06:15:52;9.85;;;3.65;;
46721;SDS011;32455;43.430;23.136;2022-10-28T06:18:39;7.32;;;3.25;;
46721;SDS011;32455;43.430;23.136;2022-10-28T06:21:24;3.50;;;1.98;;
46721;SDS011;32455;43.430;23.136;2022-10-28T06:24:11;2.75;;;1.55;;
46721;SDS011;32455;43.430;23.136;2022-10-28T06:26:57;1.60;;;1.50;;
46721;SDS011;32455;43.430;23.136;2022-10-28T06:29:42;3.42;;;1.80;;
46721;SDS011;32455;43.430;23.136;2022-10-28T06:32:27;4.28;;;1.83;;
46721;SDS011;32455;43.430;23.136;2022-10-28T06:35:12;1.80;;;1.55;;
46721;SDS011;32455;43.430;23.136;2022-10-28T06:37:57;2.22;;;1.55;;
46721;SDS011;32455;43.430;23.136;2022-10-28T06:40:42;2.08;;;1.70;;
46721;SDS011;32455;43.430;23.136;2022-10-28T06:43:29;3.72;;;1.88;;
46721;SDS011;32455;43.430;23.136;2022-10-28T06:46:15;4.50;;;1.80;;
46721;SDS011;32455;43.430;23.136;2022-10-28T06:49:00;3.13;;;1.95;;
46721;SDS011;32455;43.430;23.136;2022-10-28T06:51:47;2.78;;;1.80;;
46721;SDS011;32455;43.430;23.136;2022-10-28T06:54:34;6.28;;;2.20;;
46721;SDS011;32455;43.430;23.136;2022-10-28T06:57:19;2.38;;;1.63;;
46721;SDS011;32455;43.430;23.136;2022-10-28T07:00:04;6.03;;;1.98;;
46721;SDS011;32455;43.430;23.136;2022-10-28T07:02:51;3.28;;;1.67;;
46721;SDS011;32455;43.430;23.136;2022-10-28T07:05:37;5.07;;;2.08;;
46721;SDS011;32455;43.430;23.136;2022-10-28T07:08:23;3.55;;;2.03;;
46721;SDS011;32455;43.430;23.136;2022-10-28T07:11:09;2.58;;;1.77;;
46721;SDS011;32455;43.430;23.136;2022-10-28T07:13:54;5.18;;;2.00;;
46721;SDS011;32455;43.430;23.136;2022-10-28T07:16:40;1.63;;;1.52;;
46721;SDS011;32455;43.430;23.136;2022-10-28T07:19:26;2.17;;;1.73;;
46721;SDS011;32455;43.430;23.136;2022-10-28T07:22:12;4.47;;;1.45;;
46721;SDS011;32455;43.430;23.136;2022-10-28T07:24:58;2.75;;;1.58;;
46721;SDS011;32455;43.430;23.136;2022-10-28T07:27:43;2.55;;;1.83;;
46721;SDS011;32455;43.430;23.136;2022-10-28T07:30:28;2.38;;;1.70;;
46721;SDS011;32455;43.430;23.136;2022-10-28T07:33:14;5.15;;;1.73;;
46721;SDS011;32455;43.430;23.136;2022-10-28T07:36:03;3.50;;;1.50;;
46721;SDS011;32455;43.430;23.136;2022-10-28T07:38:50;1.33;;;1.20;;
46721;SDS011;32455;43.430;23.136;2022-10-28T07:41:36;2.92;;;1.50;;
46721;SDS011;32455;43.430;23.136;2022-10-28T07:44:22;4.00;;;1.50;;
46721;SDS011;32455;43.430;23.136;2022-10-28T07:47:07;4.03;;;1.75;;
46721;SDS011;32455;43.430;23.136;2022-10-28T07:49:52;4.93;;;2.00;;
46721;SDS011;32455;43.430;23.136;2022-10-28T07:52:41;4.00;;;1.38;;
46721;SDS011;32455;43.430;23.136;2022-10-28T07:55:29;2.03;;;1.65;;
46721;SDS011;32455;43.430;23.136;2022-10-28T07:58:14;2.63;;;1.55;;
46721;SDS011;32455;43.430;23.136;2022-10-28T08:01:03;2.63;;;1.98;;
46721;SDS011;32455;43.430;23.136;2022-10-28T08:03:50;4.00;;;1.90;;
46721;SDS011;32455;43.430;23.136;2022-10-28T08:06:35;7.20;;;1.85;;
46721;SDS011;32455;43.430;23.136;2022-10-28T08:09:20;4.80;;;1.90;;
46721;SDS011;32455;43.430;23.136;2022-10-28T08:12:06;9.75;;;4.25;;
46721;SDS011;32455;43.430;23.136;2022-10-28T08:14:52;4.25;;;2.90;;
46721;SDS011;32455;43.430;23.136;2022-10-28T08:17:40;3.38;;;2.17;;
46721;SDS011;32455;43.430;23.136;2022-10-28T08:20:25;3.00;;;2.20;;
46721;SDS011;32455;43.430;23.136;2022-10-28T08:23:10;9.00;;;5.32;;
46721;SDS011;32455;43.430;23.136;2022-10-28T08:25:56;5.38;;;2.53;;
46721;SDS011;32455;43.430;23.136;2022-10-28T08:28:42;2.85;;;2.28;;
46721;SDS011;32455;43.430;23.136;2022-10-28T08:31:27;4.20;;;2.80;;
46721;SDS011;32455;43.430;23.136;2022-10-28T08:34:12;3.17;;;2.35;;
46721;SDS011;32455;43.430;23.136;2022-10-28T08:36:57;5.70;;;4.07;;
46721;SDS011;32455;43.430;23.136;2022-10-28T08:39:42;5.45;;;4.07;;
46721;SDS011;32455;43.430;23.136;2022-10-28T08:42:37;6.85;;;3.83;;
46721;SDS011;32455;43.430;23.136;2022-10-28T08:45:30;3.95;;;3.20;;
46721;SDS011;32455;43.430;23.136;2022-10-28T08:48:43;6.53;;;2.78;;
46721;SDS011;32455;43.430;23.136;2022-10-28T08:54:33;7.38;;;3.78;;
46721;SDS011;32455;43.430;23.136;2022-10-28T08:57:50;3.40;;;2.40;;
46721;SDS011;32455;43.430;23.136;2022-10-28T09:00:40;4.05;;;2.30;;
46721;SDS011;32455;43.430;23.136;2022-10-28T09:03:39;5.10;;;2.40;;
46721;SDS011;32455;43.430;23.136;2022-10-28T09:06:29;5.00;;;3.78;;
46721;SDS011;32455;43.430;23.136;2022-10-28T09:09:18;3.67;;;2.80;;
46721;SDS011;32455;43.430;23.136;2022-10-28T09:19:02;3.70;;;2.45;;
46721;SDS011;32455;43.430;23.136;2022-10-28T09:21:31;3.83;;;2.42;;
46721;SDS011;32455;43.430;23.136;2022-10-28T09:24:18;3.10;;;2.58;;
46721;SDS011;32455;43.430;23.136;2022-10-28T09:27:20;3.03;;;2.63;;
46721;SDS011;32455;43.430;23.136;2022-10-28T09:36:31;3.20;;;2.50;;
46721;SDS011;32455;43.430;23.136;2022-10-28T09:39:23;4.15;;;2.63;;
46721;SDS011;32455;43.430;23.136;2022-10-28T09:42:19;5.03;;;3.30;;
46721;SDS011;32455;43.430;23.136;2022-10-28T09:45:18;5.15;;;3.00;;
46721;SDS011;32455;43.430;23.136;2022-10-28T09:54:31;4.35;;;3.13;;
46721;SDS011;32455;43.430;23.136;2022-10-28T09:57:28;7.80;;;3.45;;
46721;SDS011;32455;43.430;23.136;2022-10-28T10:00:16;6.03;;;3.30;;
46721;SDS011;32455;43.430;23.136;2022-10-28T10:03:02;14.65;;;5.22;;
46721;SDS011;32455;43.430;23.136;2022-10-28T10:05:49;10.77;;;3.50;;
46721;SDS011;32455;43.430;23.136;2022-10-28T10:08:39;7.00;;;4.07;;
46721;SDS011;32455;43.430;23.136;2022-10-28T10:11:27;5.50;;;3.38;;
46721;SDS011;32455;43.430;23.136;2022-10-28T10:14:18;4.53;;;3.47;;
46721;SDS011;32455;43.430;23.136;2022-10-28T10:20:05;5.47;;;3.60;;
46721;SDS011;32455;43.430;23.136;2022-10-28T10:22:53;7.10;;;3.55;;
46721;SDS011;32455;43.430;23.136;2022-10-28T10:25:38;9.05;;;3.08;;
46721;SDS011;32455;43.430;23.136;2022-10-28T10:28:24;5.68;;;2.95;;
46721;SDS011;32455;43.430;23.136;2022-10-28T10:31:43;6.90;;;2.85;;
46721;SDS011;32455;43.430;23.136;2022-10-28T10:34:24;3.15;;;2.83;;
46721;SDS011;32455;43.430;23.136;2022-10-28T10:37:20;12.02;;;3.30;;
46721;SDS011;32455;43.430;23.136;2022-10-28T10:43:36;3.88;;;3.08;;
46721;SDS011;32455;43.430;23.136;2022-10-28T10:46:21;3.92;;;2.55;;
46721;SDS011;32455;43.430;23.136;2022-10-28T10:49:11;5.60;;;3.25;;
46721;SDS011;32455;43.430;23.136;2022-10-28T10:52:03;6.03;;;2.58;;
46721;SDS011;32455;43.430;23.136;2022-10-28T10:55:00;3.63;;;2.33;;
46721;SDS011;32455;43.430;23.136;2022-10-28T10:57:51;2.92;;;2.30;;
46721;SDS011;32455;43.430;23.136;2022-10-28T11:00:37;4.00;;;2.60;;
46721;SDS011;32455;43.430;23.136;2022-10-28T11:03:40;3.15;;;2.20;;
46721;SDS011;32455;43.430;23.136;2022-10-28T11:06:50;2.72;;;2.17;;
46721;SDS011;32455;43.430;23.136;2022-10-28T11:09:38;5.75;;;2.47;;
46721;SDS011;32455;43.430;23.136;2022-10-28T11:12:30;2.85;;;2.15;;
46721;SDS011;32455;43.430;23.136;2022-10-28T11:15:21;3.22;;;2.58;;
46721;SDS011;32455;43.430;23.136;2022-10-28T11:21:09;3.83;;;2.53;;
46721;SDS011;32455;43.430;23.136;2022-10-28T11:24:33;5.35;;;3.25;;
46721;SDS011;32455;43.430;23.136;2022-10-28T11:30:35;3.22;;;2.50;;
46721;SDS011;32455;43.430;23.136;2022-10-28T11:33:40;4.63;;;2.58;;
46721;SDS011;32455;43.430;23.136;2022-10-28T11:36:37;5.68;;;2.10;;
46721;SDS011;32455;43.430;23.136;2022-10-28T11:39:58;2.42;;;1.98;;
46721;SDS011;32455;43.430;23.136;2022-10-28T11:49:37;5.07;;;2.42;;
46721;SDS011;32455;43.430;23.136;2022-10-28T11:58:31;6.28;;;2.53;;
46721;SDS011;32455;43.430;23.136;2022-10-28T12:01:40;4.00;;;2.00;;
46721;SDS011;32455;43.430;23.136;2022-10-28T12:04:49;3.97;;;2.30;;
46721;SDS011;32455;43.430;23.136;2022-10-28T12:10:44;3.47;;;2.30;;
46721;SDS011;32455;43.430;23.136;2022-10-28T12:13:49;3.97;;;2.22;;
46721;SDS011;32455;43.430;23.136;2022-10-28T12:16:47;6.68;;;2.75;;
46721;SDS011;32455;43.430;23.136;2022-10-28T12:19:57;2.97;;;2.10;;
46721;SDS011;32455;43.430;23.136;2022-10-28T12:22:55;3.78;;;2.40;;
46721;SDS011;32455;43.430;23.136;2022-10-28T12:25:45;3.33;;;2.50;;
46721;SDS011;32455;43.430;23.136;2022-10-28T12:28:37;3.97;;;2.65;;
46721;SDS011;32455;43.430;23.136;2022-10-28T12:31:31;3.13;;;2.40;;
46721;SDS011;32455;43.430;23.136;2022-10-28T12:34:28;3.00;;;2.33;;
46721;SDS011;32455;43.430;23.136;2022-10-28T12:37:20;4.88;;;2.47;;
46721;SDS011;32455;43.430;23.136;2022-10-28T12:40:14;3.00;;;2.40;;
46721;SDS011;32455;43.430;23.136;2022-10-28T12:43:08;4.32;;;2.22;;
46721;SDS011;32455;43.430;23.136;2022-10-28T12:46:15;4.68;;;2.20;;
46721;SDS011;32455;43.430;23.136;2022-10-28T12:52:18;3.75;;;1.90;;
46721;SDS011;32455;43.430;23.136;2022-10-28T12:55:15;4.55;;;2.28;;
46721;SDS011;32455;43.430;23.136;2022-10-28T12:58:19;4.10;;;2.67;;
46721;SDS011;32455;43.430;23.136;2022-10-28T13:01:12;3.58;;;2.42;;
46721;SDS011;32455;43.430;23.136;2022-10-28T13:04:00;6.68;;;3.50;;
46721;SDS011;32455;43.430;23.136;2022-10-28T13:13:07;3.90;;;2.50;;
46721;SDS011;32455;43.430;23.136;2022-10-28T13:16:13;3.25;;;2.33;;
46721;SDS011;32455;43.430;23.136;2022-10-28T13:28:59;5.15;;;2.35;;
46721;SDS011;32455;43.430;23.136;2022-10-28T13:31:50;2.92;;;2.22;;
46721;SDS011;32455;43.430;23.136;2022-10-28T13:34:37;3.63;;;1.88;;
46721;SDS011;32455;43.430;23.136;2022-10-28T13:37:30;3.38;;;2.05;;
46721;SDS011;32455;43.430;23.136;2022-10-28T13:41:02;4.35;;;2.17;;
46721;SDS011;32455;43.430;23.136;2022-10-28T13:59:29;3.30;;;2.33;;
46721;SDS011;32455;43.430;23.136;2022-10-28T14:05:09;2.58;;;2.38;;
46721;SDS011;32455;43.430;23.136;2022-10-28T14:07:58;6.65;;;2.30;;
46721;SDS011;32455;43.430;23.136;2022-10-28T14:10:58;8.45;;;2.30;;
46721;SDS011;32455;43.430;23.136;2022-10-28T14:13:55;5.43;;;2.28;;
46721;SDS011;32455;43.430;23.136;2022-10-28T14:16:45;4.07;;;2.40;;
46721;SDS011;32455;43.430;23.136;2022-10-28T14:19:30;6.90;;;4.75;;
46721;SDS011;32455;43.430;23.136;2022-10-28T14:22:26;7.72;;;4.55;;
46721;SDS011;32455;43.430;23.136;2022-10-28T14:45:56;4.30;;;2.42;;
46721;SDS011;32455;43.430;23.136;2022-10-28T14:48:52;5.10;;;2.53;;
46721;SDS011;32455;43.430;23.136;2022-10-28T14:51:39;4.55;;;3.03;;
46721;SDS011;32455;43.430;23.136;2022-10-28T14:54:34;3.58;;;2.55;;
46721;SDS011;32455;43.430;23.136;2022-10-28T14:57:28;7.38;;;3.55;;
46721;SDS011;32455;43.430;23.136;2022-10-28T15:00:20;4.93;;;2.80;;
46721;SDS011;32455;43.430;23.136;2022-10-28T15:03:09;5.50;;;3.50;;
46721;SDS011;32455;43.430;23.136;2022-10-28T15:05:58;7.40;;;4.38;;
46721;SDS011;32455;43.430;23.136;2022-10-28T15:08:45;12.63;;;5.43;;
46721;SDS011;32455;43.430;23.136;2022-10-28T15:11:31;19.80;;;11.23;;
46721;SDS011;32455;43.430;23.136;2022-10-28T15:14:25;11.93;;;8.15;;
46721;SDS011;32455;43.430;23.136;2022-10-28T15:17:19;13.68;;;6.63;;
46721;SDS011;32455;43.430;23.136;2022-10-28T15:23:17;14.07;;;10.02;;
46721;SDS011;32455;43.430;23.136;2022-10-28T15:26:05;22.02;;;14.90;;
46721;SDS011;32455;43.430;23.136;2022-10-28T15:28:59;16.33;;;10.90;;
46721;SDS011;32455;43.430;23.136;2022-10-28T15:34:50;6.20;;;3.88;;
46721;SDS011;32455;43.430;23.136;2022-10-28T15:37:35;6.45;;;4.32;;
46721;SDS011;32455;43.430;23.136;2022-10-28T15:40:31;11.32;;;4.90;;
46721;SDS011;32455;43.430;23.136;2022-10-28T15:43:19;10.98;;;6.80;;
46721;SDS011;32455;43.430;23.136;2022-10-28T15:46:16;13.32;;;4.88;;
46721;SDS011;32455;43.430;23.136;2022-10-28T15:49:01;10.50;;;6.85;;
46721;SDS011;32455;43.430;23.136;2022-10-28T15:52:34;11.32;;;5.50;;
46721;SDS011;32455;43.430;23.136;2022-10-28T15:55:02;14.35;;;5.72;;
46721;SDS011;32455;43.430;23.136;2022-10-28T16:00:57;5.32;;;4.15;;
46721;SDS011;32455;43.430;23.136;2022-10-28T16:03:44;7.07;;;4.93;;
46721;SDS011;32455;43.430;23.136;2022-10-28T16:09:30;7.43;;;2.95;;
46721;SDS011;32455;43.430;23.136;2022-10-28T16:12:20;8.38;;;3.80;;
46721;SDS011;32455;43.430;23.136;2022-10-28T16:15:12;3.65;;;3.30;;
46721;SDS011;32455;43.430;23.136;2022-10-28T16:17:59;5.82;;;3.55;;
46721;SDS011;32455;43.430;23.136;2022-10-28T16:20:45;9.32;;;3.50;;
46721;SDS011;32455;43.430;23.136;2022-10-28T16:23:38;6.55;;;3.75;;
46721;SDS011;32455;43.430;23.136;2022-10-28T16:26:27;9.93;;;6.82;;
46721;SDS011;32455;43.430;23.136;2022-10-28T16:29:15;6.65;;;4.20;;
46721;SDS011;32455;43.430;23.136;2022-10-28T16:32:00;9.70;;;4.50;;
46721;SDS011;32455;43.430;23.136;2022-10-28T16:34:46;6.00;;;4.35;;
46721;SDS011;32455;43.430;23.136;2022-10-28T16:37:32;7.38;;;3.38;;
46721;SDS011;32455;43.430;23.136;2022-10-28T16:40:18;12.75;;;3.40;;
46721;SDS011;32455;43.430;23.136;2022-10-28T16:43:03;4.40;;;3.20;;
46721;SDS011;32455;43.430;23.136;2022-10-28T16:45:50;4.72;;;3.30;;
46721;SDS011;32455;43.430;23.136;2022-10-28T16:48:37;7.28;;;3.50;;
46721;SDS011;32455;43.430;23.136;2022-10-28T16:51:23;6.82;;;3.42;;
46721;SDS011;32455;43.430;23.136;2022-10-28T16:54:09;5.57;;;4.07;;
46721;SDS011;32455;43.430;23.136;2022-10-28T16:56:54;5.05;;;3.83;;
46721;SDS011;32455;43.430;23.136;2022-10-28T16:59:40;6.43;;;4.03;;
46721;SDS011;32455;43.430;23.136;2022-10-28T17:02:29;4.97;;;3.83;;
46721;SDS011;32455;43.430;23.136;2022-10-28T17:05:21;8.55;;;3.55;;
46721;SDS011;32455;43.430;23.136;2022-10-28T17:08:07;4.85;;;3.58;;
46721;SDS011;32455;43.430;23.136;2022-10-28T17:10:53;9.07;;;4.30;;
46721;SDS011;32455;43.430;23.136;2022-10-28T17:13:38;7.40;;;5.05;;
46721;SDS011;32455;43.430;23.136;2022-10-28T17:16:24;7.03;;;4.75;;
46721;SDS011;32455;43.430;23.136;2022-10-28T17:19:09;11.80;;;4.22;;
46721;SDS011;32455;43.430;23.136;2022-10-28T17:21:55;5.78;;;4.13;;
46721;SDS011;32455;43.430;23.136;2022-10-28T17:24:39;9.57;;;4.40;;
46721;SDS011;32455;43.430;23.136;2022-10-28T17:27:25;5.72;;;4.00;;
46721;SDS011;32455;43.430;23.136;2022-10-28T17:30:11;5.03;;;3.00;;
46721;SDS011;32455;43.430;23.136;2022-10-28T17:32:56;9.82;;;3.47;;
46721;SDS011;32455;43.430;23.136;2022-10-28T17:35:41;9.30;;;2.90;;
46721;SDS011;32455;43.430;23.136;2022-10-28T17:38:27;7.25;;;3.33;;
46721;SDS011;32455;43.430;23.136;2022-10-28T17:41:14;5.10;;;3.15;;
46721;SDS011;32455;43.430;23.136;2022-10-28T17:44:00;8.25;;;2.65;;
46721;SDS011;32455;43.430;23.136;2022-10-28T17:46:48;3.88;;;2.70;;
46721;SDS011;32455;43.430;23.136;2022-10-28T17:49:33;6.13;;;2.95;;
46721;SDS011;32455;43.430;23.136;2022-10-28T17:52:21;5.10;;;3.28;;
46721;SDS011;32455;43.430;23.136;2022-10-28T17:55:06;4.13;;;2.50;;
46721;SDS011;32455;43.430;23.136;2022-10-28T17:57:52;4.03;;;2.45;;
46721;SDS011;32455;43.430;23.136;2022-10-28T18:00:37;3.25;;;2.90;;
46721;SDS011;32455;43.430;23.136;2022-10-28T18:03:23;4.65;;;2.60;;
46721;SDS011;32455;43.430;23.136;2022-10-28T18:06:09;3.53;;;2.45;;
46721;SDS011;32455;43.430;23.136;2022-10-28T18:08:56;5.35;;;2.85;;
46721;SDS011;32455;43.430;23.136;2022-10-28T18:11:41;4.22;;;2.40;;
46721;SDS011;32455;43.430;23.136;2022-10-28T18:14:27;7.10;;;2.90;;
46721;SDS011;32455;43.430;23.136;2022-10-28T18:17:13;2.70;;;2.50;;
46721;SDS011;32455;43.430;23.136;2022-10-28T18:20:01;6.65;;;2.80;;
46721;SDS011;32455;43.430;23.136;2022-10-28T18:22:47;2.75;;;2.30;;
46721;SDS011;32455;43.430;23.136;2022-10-28T18:25:32;5.72;;;2.75;;
46721;SDS011;32455;43.430;23.136;2022-10-28T18:28:17;4.47;;;2.22;;
46721;SDS011;32455;43.430;23.136;2022-10-28T18:31:08;3.85;;;3.03;;
46721;SDS011;32455;43.430;23.136;2022-10-28T18:33:56;6.40;;;2.67;;
46721;SDS011;32455;43.430;23.136;2022-10-28T18:36:43;3.63;;;2.25;;
46721;SDS011;32455;43.430;23.136;2022-10-28T18:39:30;6.15;;;2.50;;
46721;SDS011;32455;43.430;23.136;2022-10-28T18:42:16;4.18;;;2.55;;
46721;SDS011;32455;43.430;23.136;2022-10-28T18:45:03;4.25;;;2.20;;
46721;SDS011;32455;43.430;23.136;2022-10-28T18:47:49;3.78;;;2.10;;
46721;SDS011;32455;43.430;23.136;2022-10-28T18:50:34;3.15;;;2.53;;
46721;SDS011;32455;43.430;23.136;2022-10-28T18:53:20;5.22;;;2.83;;
46721;SDS011;32455;43.430;23.136;2022-10-28T18:56:06;3.05;;;2.28;;
46721;SDS011;32455;43.430;23.136;2022-10-28T18:58:53;2.42;;;2.10;;
46721;SDS011;32455;43.430;23.136;2022-10-28T19:01:40;3.30;;;2.28;;
46721;SDS011;32455;43.430;23.136;2022-10-28T19:04:30;4.35;;;2.45;;
46721;SDS011;32455;43.430;23.136;2022-10-28T19:07:15;4.15;;;2.40;;
46721;SDS011;32455;43.430;23.136;2022-10-28T19:10:01;3.50;;;2.30;;
46721;SDS011;32455;43.430;23.136;2022-10-28T19:12:46;6.03;;;2.67;;
46721;SDS011;32455;43.430;23.136;2022-10-28T19:15:31;7.10;;;2.03;;
46721;SDS011;32455;43.430;23.136;2022-10-28T19:18:16;2.70;;;2.05;;
46721;SDS011;32455;43.430;23.136;2022-10-28T19:21:01;3.80;;;2.10;;
46721;SDS011;32455;43.430;23.136;2022-10-28T19:23:48;3.92;;;2.30;;
46721;SDS011;32455;43.430;23.136;2022-10-28T19:26:34;2.70;;;2.00;;
46721;SDS011;32455;43.430;23.136;2022-10-28T19:29:19;2.63;;;1.95;;
46721;SDS011;32455;43.430;23.136;2022-10-28T19:32:05;3.35;;;2.30;;
46721;SDS011;32455;43.430;23.136;2022-10-28T19:34:50;3.17;;;2.35;;
46721;SDS011;32455;43.430;23.136;2022-10-28T19:37:36;3.90;;;2.50;;